Time;durP1;ratioP1;P1;durP2;ratioP2;P2;SDS_P1;SDS_P2;PMS_P1;PMS_P2;Temp;Humidity;BMP_temperature;BMP_pressure;BME280_temperature;BME280_humidity;BME280_pressure;Samples;Min_cycle;Max_cycle;Signal;HPM_P1;HPM_P2
2022/11/25 00:01:17;;;;;;;3.60;0.77;;;7.90;99.90;;;;;;5002734;28;20034;-74
2022/11/25 00:03:44;;;;;;;4.15;1.35;;;7.80;99.90;;;;;;5003362;28;20518;-74
2022/11/25 00:06:36;;;;;;;4.18;0.90;;;7.80;99.90;;;;;;5003536;28;20042;-74
2022/11/25 00:09:20;;;;;;;7.10;1.08;;;7.90;99.90;;;;;;5003527;28;20049;-74
2022/11/25 00:11:45;;;;;;;9.57;1.55;;;7.80;99.90;;;;;;5003294;28;20083;-74
2022/11/25 00:14:13;;;;;;;2.88;1.05;;;7.80;99.90;;;;;;5001317;28;20043;-74
2022/11/25 00:16:39;;;;;;;1.95;1.13;;;7.90;99.90;;;;;;5005279;28;20045;-74
2022/11/25 00:19:05;;;;;;;3.95;0.88;;;7.90;99.90;;;;;;5002535;28;20061;-74
2022/11/25 00:21:33;;;;;;;1.52;0.50;;;7.90;99.90;;;;;;4999060;28;20042;-74
2022/11/25 00:24:01;;;;;;;7.97;1.27;;;7.90;99.90;;;;;;5001535;28;20050;-74
2022/11/25 00:26:28;;;;;;;3.85;1.05;;;7.90;99.90;;;;;;4991087;28;20113;-74
2022/11/25 00:28:56;;;;;;;3.20;1.17;;;7.90;99.90;;;;;;4989151;28;20495;-74
2022/11/25 00:31:28;;;;;;;2.17;0.95;;;7.90;99.90;;;;;;5001990;28;20121;-74
2022/11/25 00:33:54;;;;;;;2.15;0.47;;;7.90;99.90;;;;;;4983809;28;20121;-74
2022/11/25 00:36:25;;;;;;;3.55;0.95;;;8.00;99.90;;;;;;5002407;28;20117;-74
2022/11/25 00:39:02;;;;;;;5.25;0.85;;;8.00;99.90;;;;;;4997871;28;21200;-74
2022/11/25 00:46:58;;;;;;;;;;;8.00;99.90;;;;;;5005860;28;20630;-74
2022/11/25 00:49:24;;;;;;;4.05;1.40;;;8.00;99.90;;;;;;5003722;28;19933;-74
2022/11/25 00:51:49;;;;;;;2.58;1.17;;;8.10;99.90;;;;;;4987705;28;20453;-74
2022/11/25 00:54:15;;;;;;;3.97;0.98;;;8.10;99.90;;;;;;4976305;28;20050;-74
2022/11/25 00:56:40;;;;;;;1.35;0.65;;;8.10;99.90;;;;;;5008679;28;20045;-74
2022/11/25 00:59:07;;;;;;;1.45;0.80;;;8.00;99.90;;;;;;5003055;28;20118;-74
2022/11/25 01:01:33;;;;;;;9.40;1.17;;;8.10;99.90;;;;;;4998874;28;20088;-74
2022/11/25 01:03:59;;;;;;;8.70;1.27;;;8.10;99.90;;;;;;5000838;28;20050;-74
2022/11/25 01:06:25;;;;;;;5.82;1.00;;;8.10;99.90;;;;;;5003720;28;20406;-74
2022/11/25 01:08:51;;;;;;;5.22;1.33;;;8.10;99.90;;;;;;5000291;28;20041;-74
2022/11/25 01:11:19;;;;;;;2.03;0.90;;;8.10;99.90;;;;;;5003650;28;20049;-74
2022/11/25 01:13:45;;;;;;;2.38;0.82;;;8.10;99.90;;;;;;4984803;28;20470;-74
2022/11/25 01:16:14;;;;;;;1.58;0.68;;;8.10;99.90;;;;;;5006882;28;20045;-74
2022/11/25 01:18:40;;;;;;;8.05;1.42;;;8.10;99.90;;;;;;5003461;28;20038;-74
2022/11/25 01:21:10;;;;;;;2.92;0.90;;;8.10;99.90;;;;;;5004559;28;20038;-74
2022/11/25 01:23:36;;;;;;;3.50;1.15;;;8.10;99.90;;;;;;5004044;28;20061;-74
2022/11/25 01:26:07;;;;;;;7.10;0.88;;;8.10;99.90;;;;;;5003452;28;20303;-74
2022/11/25 01:28:33;;;;;;;2.25;0.70;;;8.10;99.90;;;;;;4998363;28;20077;-74
2022/11/25 01:31:01;;;;;;;6.57;0.85;;;8.10;99.90;;;;;;4981385;28;20941;-74
2022/11/25 01:33:27;;;;;;;1.48;0.88;;;8.10;99.90;;;;;;4980539;28;20035;-74
2022/11/25 01:35:52;;;;;;;1.90;0.50;;;8.10;99.90;;;;;;5001331;28;20034;-75
2022/11/25 01:38:18;;;;;;;3.30;0.85;;;8.10;99.90;;;;;;5001792;28;20042;-74
2022/11/25 01:40:43;;;;;;;6.07;1.05;;;8.10;99.90;;;;;;5003071;28;20176;-74
2022/11/25 01:43:13;;;;;;;2.88;0.80;;;8.10;99.90;;;;;;4996083;28;20042;-74
2022/11/25 01:45:39;;;;;;;2.28;0.73;;;8.10;99.90;;;;;;5002670;28;20041;-75
2022/11/25 01:48:13;;;;;;;2.00;0.75;;;8.20;99.90;;;;;;4999801;28;20038;-74
2022/11/25 01:50:40;;;;;;;2.17;0.73;;;8.20;99.90;;;;;;5019111;28;20129;-75
2022/11/25 01:53:09;;;;;;;2.58;1.10;;;8.20;99.90;;;;;;4999444;28;20038;-74
2022/11/25 01:55:38;;;;;;;4.00;1.33;;;8.20;99.90;;;;;;4985610;28;20050;-74
2022/11/25 01:58:32;;;;;;;5.78;1.25;;;8.20;99.90;;;;;;5005068;28;20372;-74
2022/11/25 02:00:58;;;;;;;2.45;0.77;;;8.20;99.90;;;;;;4984992;28;20050;-75
2022/11/25 02:03:30;;;;;;;2.85;0.57;;;8.20;99.90;;;;;;5007025;28;20045;-74
2022/11/25 02:06:02;;;;;;;1.45;0.95;;;8.30;99.90;;;;;;5004163;28;20057;-74
2022/11/25 02:08:28;;;;;;;2.70;0.93;;;8.30;99.90;;;;;;4998068;28;20057;-74
2022/11/25 02:10:54;;;;;;;8.45;1.63;;;8.30;99.90;;;;;;4982493;28;20030;-74
2022/11/25 02:13:22;;;;;;;1.90;0.80;;;8.30;99.90;;;;;;4984772;28;20506;-74
2022/11/25 02:15:48;;;;;;;4.65;0.95;;;8.30;99.90;;;;;;4999945;28;20052;-74
2022/11/25 02:18:14;;;;;;;1.85;0.63;;;8.30;99.90;;;;;;5005633;28;20076;-74
2022/11/25 02:20:40;;;;;;;3.05;0.57;;;8.30;99.90;;;;;;5001014;28;20060;-74
2022/11/25 02:23:24;;;;;;;3.42;0.98;;;8.20;99.90;;;;;;4988208;28;20034;-74
2022/11/25 02:25:51;;;;;;;2.55;0.55;;;8.30;99.90;;;;;;4990052;28;20041;-74
2022/11/25 02:28:29;;;;;;;2.45;0.60;;;8.30;99.90;;;;;;5002590;28;20538;-74
2022/11/25 02:30:56;;;;;;;2.75;0.73;;;8.30;99.90;;;;;;5001011;28;20030;-74
2022/11/25 02:33:22;;;;;;;1.52;0.88;;;8.30;99.90;;;;;;4999155;28;20033;-74
2022/11/25 02:35:53;;;;;;;1.65;0.60;;;8.20;99.90;;;;;;4978980;28;20096;-74
2022/11/25 02:38:33;;;;;;;5.13;1.52;;;8.30;99.90;;;;;;5000168;28;20124;-74
2022/11/25 02:41:10;;;;;;;3.72;0.82;;;8.30;99.90;;;;;;5001538;28;20045;-74
2022/11/25 02:43:36;;;;;;;2.17;0.82;;;8.30;99.90;;;;;;4996450;28;20045;-74
2022/11/25 02:46:09;;;;;;;2.78;1.23;;;8.30;99.90;;;;;;4986880;28;20518;-74
2022/11/25 02:48:37;;;;;;;2.13;0.98;;;8.30;99.90;;;;;;4986419;28;20157;-74
2022/11/25 02:51:04;;;;;;;7.68;1.17;;;8.30;99.90;;;;;;4999157;28;20165;-74
2022/11/25 02:53:30;;;;;;;4.25;1.05;;;8.30;99.90;;;;;;5002662;28;20503;-74
2022/11/25 02:55:55;;;;;;;4.18;0.80;;;8.30;99.90;;;;;;4988413;28;20025;-74
2022/11/25 02:58:21;;;;;;;1.75;0.70;;;8.30;99.90;;;;;;4997291;28;20030;-74
2022/11/25 03:00:47;;;;;;;4.15;1.20;;;8.30;99.90;;;;;;4999654;28;20096;-74
2022/11/25 03:03:12;;;;;;;2.40;0.90;;;8.30;99.90;;;;;;5020941;28;20124;-74
2022/11/25 03:05:38;;;;;;;3.00;1.00;;;8.30;99.90;;;;;;5001082;28;21588;-74
2022/11/25 03:08:05;;;;;;;3.22;1.02;;;8.30;99.90;;;;;;4983813;28;20092;-74
2022/11/25 03:10:31;;;;;;;2.33;1.15;;;8.30;99.90;;;;;;4983553;28;20088;-74
2022/11/25 03:12:57;;;;;;;2.15;1.20;;;8.40;99.90;;;;;;4997589;28;20049;-74
2022/11/25 03:15:23;;;;;;;1.63;1.00;;;8.30;99.90;;;;;;4993479;28;20052;-74
2022/11/25 03:17:49;;;;;;;4.28;1.48;;;8.40;99.90;;;;;;5011665;28;20066;-74
2022/11/25 03:20:15;;;;;;;1.85;1.02;;;8.40;99.90;;;;;;5000125;28;20135;-74
2022/11/25 03:22:42;;;;;;;3.60;1.00;;;8.40;99.90;;;;;;5001585;28;20046;-74
2022/11/25 03:25:08;;;;;;;6.18;1.55;;;8.40;99.90;;;;;;4998997;28;20030;-74
2022/11/25 03:27:35;;;;;;;10.13;1.58;;;8.40;99.90;;;;;;4980998;28;20038;-74
2022/11/25 03:30:01;;;;;;;3.13;1.17;;;8.30;99.90;;;;;;4997911;28;20039;-74
2022/11/25 03:32:26;;;;;;;3.15;0.90;;;8.40;99.90;;;;;;4998679;28;20049;-74
2022/11/25 03:34:52;;;;;;;4.65;1.25;;;8.40;99.90;;;;;;4996641;28;20076;-74
2022/11/25 03:37:18;;;;;;;4.40;1.48;;;8.30;99.90;;;;;;5017183;28;20034;-74
2022/11/25 03:39:44;;;;;;;2.95;1.08;;;8.40;99.90;;;;;;5015199;28;20034;-74
2022/11/25 03:42:09;;;;;;;4.07;1.33;;;8.40;99.90;;;;;;4985633;28;20352;-75
2022/11/25 03:44:35;;;;;;;5.57;1.33;;;8.40;99.90;;;;;;4995626;28;20129;-74
2022/11/25 03:47:01;;;;;;;6.18;1.08;;;8.50;99.90;;;;;;4979555;28;20058;-74
2022/11/25 03:49:26;;;;;;;2.60;0.93;;;8.50;99.90;;;;;;5002110;28;20044;-74
2022/11/25 03:51:53;;;;;;;4.35;1.10;;;8.50;99.90;;;;;;4995433;28;20514;-74
2022/11/25 03:54:18;;;;;;;6.80;1.23;;;8.50;99.90;;;;;;4999255;28;20037;-74
2022/11/25 03:56:44;;;;;;;6.68;1.65;;;8.50;99.90;;;;;;5018175;28;20049;-74
2022/11/25 03:59:10;;;;;;;4.68;0.93;;;8.50;99.90;;;;;;4996715;28;20038;-74
2022/11/25 04:01:36;;;;;;;7.97;1.42;;;8.50;99.90;;;;;;4996320;28;20038;-74
2022/11/25 04:04:02;;;;;;;2.75;0.73;;;8.50;99.90;;;;;;4984930;28;20038;-74
2022/11/25 04:06:28;;;;;;;5.55;1.35;;;8.50;99.90;;;;;;4997242;28;20084;-74
2022/11/25 04:08:53;;;;;;;1.70;0.95;;;8.50;99.90;;;;;;4997990;28;20499;-74
2022/11/25 04:11:19;;;;;;;3.83;1.23;;;8.50;99.90;;;;;;4998740;28;20052;-74
2022/11/25 04:13:44;;;;;;;5.15;1.25;;;8.50;99.90;;;;;;4995909;28;20124;-74
2022/11/25 04:16:21;;;;;;;5.57;1.17;;;8.50;99.90;;;;;;4999028;28;20038;-74
2022/11/25 04:18:46;;;;;;;5.05;1.17;;;8.50;99.90;;;;;;4999191;28;20074;-74
2022/11/25 04:21:12;;;;;;;5.82;1.30;;;8.50;99.90;;;;;;4985671;28;20320;-74
2022/11/25 04:23:38;;;;;;;3.08;0.98;;;8.50;99.90;;;;;;4998664;28;20057;-74
2022/11/25 04:26:03;;;;;;;3.55;1.38;;;8.50;99.90;;;;;;4998859;28;20037;-74
2022/11/25 04:28:29;;;;;;;2.58;0.98;;;8.50;99.90;;;;;;4998683;28;20034;-75
2022/11/25 04:30:55;;;;;;;2.95;0.90;;;8.50;99.90;;;;;;4982085;28;20070;-74
2022/11/25 04:33:20;;;;;;;3.58;1.42;;;8.50;99.90;;;;;;4996502;28;20057;-74
2022/11/25 04:35:46;;;;;;;4.72;1.50;;;8.50;99.90;;;;;;4997370;28;20048;-74
2022/11/25 04:38:12;;;;;;;1.38;0.88;;;8.50;99.90;;;;;;5002789;28;20048;-74
2022/11/25 04:40:37;;;;;;;2.10;1.23;;;8.50;99.90;;;;;;5000695;28;20053;-74
2022/11/25 04:43:03;;;;;;;6.07;1.88;;;8.60;99.90;;;;;;5000447;28;20049;-74
2022/11/25 04:45:28;;;;;;;4.07;1.40;;;8.50;99.90;;;;;;5003987;28;20033;-74
2022/11/25 04:47:54;;;;;;;6.65;1.27;;;8.60;99.90;;;;;;5001356;28;20030;-74
2022/11/25 04:50:22;;;;;;;4.22;1.40;;;8.50;99.90;;;;;;4987536;28;20041;-74
2022/11/25 04:52:48;;;;;;;3.83;1.73;;;8.50;99.90;;;;;;5015360;28;20042;-74
2022/11/25 04:55:13;;;;;;;2.42;1.10;;;8.60;99.90;;;;;;5001113;28;20153;-74
2022/11/25 04:57:39;;;;;;;1.88;1.08;;;8.50;99.90;;;;;;5003287;28;20037;-74
2022/11/25 05:00:06;;;;;;;6.93;1.60;;;8.50;99.90;;;;;;5003401;28;20629;-75
2022/11/25 05:02:32;;;;;;;3.58;1.30;;;8.60;99.90;;;;;;5002403;28;20037;-74
2022/11/25 05:04:57;;;;;;;8.50;1.65;;;8.50;99.90;;;;;;4998540;28;20602;-74
2022/11/25 05:07:25;;;;;;;6.00;1.45;;;8.50;99.90;;;;;;5009068;28;20061;-75
2022/11/25 05:09:50;;;;;;;3.28;1.15;;;8.50;99.90;;;;;;5000421;28;20069;-74
2022/11/25 05:12:19;;;;;;;2.50;1.15;;;8.50;99.90;;;;;;5003033;28;20081;-74
2022/11/25 05:14:45;;;;;;;3.25;1.30;;;8.50;99.90;;;;;;4995916;28;20042;-74
2022/11/25 05:17:16;;;;;;;4.93;2.15;;;8.50;99.90;;;;;;5000622;28;20129;-74
2022/11/25 05:19:42;;;;;;;5.55;1.52;;;8.60;99.90;;;;;;5004554;28;20097;-75
2022/11/25 05:22:17;;;;;;;2.97;1.50;;;8.50;99.90;;;;;;4988213;28;20030;-74
2022/11/25 05:24:43;;;;;;;4.00;1.48;;;8.50;99.90;;;;;;5003576;28;20052;-74
2022/11/25 05:27:09;;;;;;;3.22;1.40;;;8.50;99.90;;;;;;5004315;28;20061;-75
2022/11/25 05:29:36;;;;;;;3.35;1.42;;;8.50;99.90;;;;;;5002690;28;20121;-75
2022/11/25 05:32:02;;;;;;;6.43;1.50;;;8.50;99.90;;;;;;4983621;28;20092;-74
2022/11/25 05:34:28;;;;;;;4.05;1.67;;;8.50;99.90;;;;;;4999334;28;20120;-75
2022/11/25 05:36:53;;;;;;;3.83;1.85;;;8.50;99.90;;;;;;5000199;28;20121;-74
2022/11/25 05:39:19;;;;;;;2.88;1.55;;;8.50;99.90;;;;;;5000265;28;20073;-75
2022/11/25 05:41:45;;;;;;;3.95;2.15;;;8.50;99.90;;;;;;5002850;28;20038;-75
2022/11/25 05:44:10;;;;;;;8.27;2.05;;;8.50;99.90;;;;;;5000834;28;20112;-74
2022/11/25 05:46:36;;;;;;;7.40;1.73;;;8.50;99.90;;;;;;4999194;28;20041;-75
2022/11/25 05:49:02;;;;;;;2.05;1.20;;;8.50;99.90;;;;;;4996594;28;20093;-75
2022/11/25 05:51:28;;;;;;;5.68;1.70;;;8.50;99.90;;;;;;4999843;28;20049;-75
2022/11/25 05:53:55;;;;;;;2.35;1.30;;;8.50;99.90;;;;;;4997059;28;20042;-75
2022/11/25 05:56:20;;;;;;;4.35;1.95;;;8.50;99.90;;;;;;4998086;28;22499;-74
2022/11/25 05:58:46;;;;;;;4.60;2.00;;;8.50;99.90;;;;;;4999286;28;20026;-74
2022/11/25 06:01:13;;;;;;;2.88;1.70;;;8.50;99.90;;;;;;4985629;28;20510;-74
2022/11/25 06:03:40;;;;;;;6.05;1.58;;;8.50;99.90;;;;;;4996220;28;20042;-75
2022/11/25 06:06:07;;;;;;;8.35;1.63;;;8.50;99.90;;;;;;5018178;28;20045;-74
2022/11/25 06:08:34;;;;;;;6.85;1.90;;;8.50;99.90;;;;;;4999174;28;20500;-74
2022/11/25 06:11:07;;;;;;;4.35;1.75;;;8.50;99.90;;;;;;4996746;28;20089;-75
2022/11/25 06:13:33;;;;;;;4.18;1.50;;;8.50;99.90;;;;;;5001082;28;20060;-74
2022/11/25 06:16:04;;;;;;;6.00;2.05;;;8.50;99.90;;;;;;4982475;28;20038;-75
2022/11/25 06:18:30;;;;;;;2.58;1.50;;;8.50;99.90;;;;;;4998620;28;20052;-74
2022/11/25 06:20:59;;;;;;;4.43;1.60;;;8.50;99.90;;;;;;5000982;28;20045;-74
2022/11/25 06:23:25;;;;;;;5.85;1.83;;;8.50;99.90;;;;;;5000015;28;20038;-75
2022/11/25 06:25:51;;;;;;;2.15;1.33;;;8.50;99.90;;;;;;4983689;28;20036;-75
2022/11/25 06:28:17;;;;;;;3.47;1.67;;;8.50;99.90;;;;;;4999844;28;20096;-75
2022/11/25 06:30:43;;;;;;;3.53;1.50;;;8.50;99.90;;;;;;4999597;28;20057;-74
2022/11/25 06:33:09;;;;;;;6.78;1.95;;;8.50;99.90;;;;;;4982468;28;20596;-75
2022/11/25 06:35:35;;;;;;;14.38;1.88;;;8.50;99.90;;;;;;4983565;28;20038;-74
2022/11/25 06:38:01;;;;;;;4.88;1.90;;;8.50;99.90;;;;;;5016977;28;20030;-74
2022/11/25 06:40:27;;;;;;;5.50;1.88;;;8.50;99.90;;;;;;4980041;28;20128;-74
2022/11/25 06:42:52;;;;;;;4.03;1.67;;;8.60;99.90;;;;;;4999017;28;20128;-75
2022/11/25 06:45:18;;;;;;;4.13;1.98;;;8.50;99.90;;;;;;4999153;28;20048;-74
2022/11/25 06:47:43;;;;;;;4.00;1.23;;;8.50;99.90;;;;;;5016970;28;20487;-74
2022/11/25 06:50:09;;;;;;;7.63;1.65;;;8.50;99.90;;;;;;4984269;28;20038;-74
2022/11/25 06:52:35;;;;;;;3.40;1.35;;;8.50;99.90;;;;;;4997347;28;20041;-74
2022/11/25 06:55:02;;;;;;;4.78;1.98;;;8.50;99.90;;;;;;4979892;28;20026;-75
2022/11/25 06:57:28;;;;;;;2.03;1.00;;;8.50;99.90;;;;;;4988212;28;20040;-75
2022/11/25 06:59:53;;;;;;;5.53;1.38;;;8.50;99.90;;;;;;4987107;28;20050;-75
2022/11/25 07:02:19;;;;;;;2.65;1.15;;;8.50;99.90;;;;;;5002645;28;20676;-75
2022/11/25 07:04:45;;;;;;;1.98;0.88;;;8.50;99.90;;;;;;5002247;28;20050;-75
2022/11/25 07:07:10;;;;;;;5.15;1.48;;;8.50;99.90;;;;;;5000664;28;20085;-75
2022/11/25 07:09:36;;;;;;;3.25;0.80;;;8.60;99.90;;;;;;5002046;28;20103;-74
2022/11/25 07:12:02;;;;;;;2.20;1.05;;;8.60;99.90;;;;;;5007266;28;20026;-74
2022/11/25 07:14:27;;;;;;;2.78;1.20;;;8.50;99.90;;;;;;5007377;28;20092;-74
2022/11/25 07:16:53;;;;;;;3.63;1.15;;;8.60;99.90;;;;;;5007039;28;20044;-74
2022/11/25 07:19:19;;;;;;;1.77;0.90;;;8.50;99.90;;;;;;5008248;28;20524;-74
2022/11/25 07:21:45;;;;;;;3.03;1.40;;;8.60;99.90;;;;;;5000362;28;20121;-75
2022/11/25 07:24:13;;;;;;;3.75;0.90;;;8.50;99.90;;;;;;4998255;28;20041;-74
2022/11/25 07:26:40;;;;;;;1.40;0.90;;;8.60;99.90;;;;;;4998062;28;20122;-75
2022/11/25 07:29:09;;;;;;;2.58;1.38;;;8.50;99.90;;;;;;4997075;28;20046;-76
2022/11/25 07:31:38;;;;;;;2.38;0.80;;;8.50;99.90;;;;;;4980766;28;20052;-74
2022/11/25 07:34:12;;;;;;;8.02;1.15;;;8.50;99.90;;;;;;4997763;28;20128;-75
2022/11/25 07:36:38;;;;;;;2.78;1.13;;;8.50;99.90;;;;;;5017648;28;20045;-74
2022/11/25 07:39:07;;;;;;;2.05;0.70;;;8.50;99.90;;;;;;4999455;28;20128;-74
2022/11/25 07:41:33;;;;;;;5.53;1.45;;;8.40;99.90;;;;;;4998628;28;20056;-76
2022/11/25 07:44:02;;;;;;;2.97;0.88;;;8.40;99.90;;;;;;4997294;28;20038;-74
2022/11/25 07:46:37;;;;;;;1.38;0.57;;;8.40;99.90;;;;;;5000238;28;20069;-75
2022/11/25 07:49:05;;;;;;;1.42;0.80;;;8.30;99.90;;;;;;5018557;28;20034;-75
2022/11/25 07:51:56;;;;;;;1.90;1.10;;;8.30;99.90;;;;;;5002070;28;20061;-74
2022/11/25 07:54:22;;;;;;;5.78;0.90;;;8.30;99.90;;;;;;4999014;28;20042;-74
2022/11/25 07:56:49;;;;;;;1.92;0.57;;;8.30;99.90;;;;;;4983834;28;20419;-74
2022/11/25 07:59:17;;;;;;;4.47;1.98;;;8.20;99.90;;;;;;4999407;28;20609;-74
2022/11/25 08:01:44;;;;;;;2.83;1.15;;;8.20;99.90;;;;;;4999227;28;20107;-74
2022/11/25 08:04:11;;;;;;;2.35;0.77;;;8.20;99.90;;;;;;4997078;28;20045;-74
2022/11/25 08:06:41;;;;;;;1.70;0.70;;;8.20;99.90;;;;;;4998463;28;20046;-74
2022/11/25 08:09:08;;;;;;;4.18;0.85;;;8.20;99.90;;;;;;4994509;28;20042;-74
2022/11/25 08:11:33;;;;;;;1.98;0.95;;;8.20;99.90;;;;;;4998642;28;20044;-74
2022/11/25 08:13:59;;;;;;;2.08;0.63;;;8.20;99.90;;;;;;4997922;28;20380;-74
2022/11/25 08:16:27;;;;;;;4.05;1.17;;;8.20;99.90;;;;;;5000309;28;20045;-75
2022/11/25 08:18:54;;;;;;;3.40;1.17;;;8.20;99.90;;;;;;5000404;28;20055;-75
2022/11/25 08:21:20;;;;;;;6.68;0.90;;;8.20;99.90;;;;;;5000798;28;20049;-74
2022/11/25 08:23:47;;;;;;;5.70;0.70;;;8.20;99.90;;;;;;4999666;28;20380;-74
2022/11/25 08:26:31;;;;;;;4.97;1.58;;;8.20;99.90;;;;;;4999413;28;20084;-74
2022/11/25 08:28:57;;;;;;;1.27;0.60;;;8.20;99.90;;;;;;5014973;28;20495;-74
2022/11/25 08:31:26;;;;;;;6.57;1.10;;;8.20;99.90;;;;;;4995763;28;20072;-76
2022/11/25 08:33:53;;;;;;;3.83;1.15;;;8.30;99.90;;;;;;5001861;28;20508;-76
2022/11/25 08:36:19;;;;;;;1.83;0.93;;;8.20;99.90;;;;;;4999308;28;20033;-74
2022/11/25 08:38:48;;;;;;;1.90;0.82;;;8.40;99.90;;;;;;4997989;28;20048;-74
2022/11/25 08:41:20;;;;;;;3.90;1.45;;;8.30;99.90;;;;;;4998094;28;20049;-75
2022/11/25 08:43:45;;;;;;;1.42;0.95;;;8.30;99.90;;;;;;5001933;28;20049;-75
2022/11/25 08:46:14;;;;;;;3.00;1.27;;;8.30;99.90;;;;;;4995859;28;20041;-74
2022/11/25 08:48:40;;;;;;;3.70;0.75;;;8.40;99.90;;;;;;4997853;28;20514;-75
2022/11/25 08:51:10;;;;;;;2.25;0.73;;;8.40;99.90;;;;;;5000326;28;20050;-74
2022/11/25 08:53:36;;;;;;;4.40;0.73;;;8.40;99.90;;;;;;4998432;28;20070;-74
2022/11/25 08:56:02;;;;;;;1.20;0.73;;;8.40;99.90;;;;;;5000107;28;20638;-74
2022/11/25 08:58:27;;;;;;;4.60;1.40;;;8.40;99.90;;;;;;5001533;28;20046;-74
2022/11/25 09:00:53;;;;;;;2.03;1.27;;;8.40;99.90;;;;;;4997980;28;20050;-74
2022/11/25 09:03:18;;;;;;;1.92;0.77;;;8.50;99.90;;;;;;4993174;28;20038;-74
2022/11/25 09:05:44;;;;;;;2.40;1.10;;;8.50;99.90;;;;;;4993310;28;20050;-74
2022/11/25 09:08:10;;;;;;;9.90;1.40;;;8.50;99.90;;;;;;5000731;28;20065;-74
2022/11/25 09:10:37;;;;;;;2.42;1.30;;;8.60;99.90;;;;;;4997614;28;20400;-74
2022/11/25 09:13:03;;;;;;;3.83;1.15;;;8.50;99.90;;;;;;4996198;28;20623;-74
2022/11/25 09:15:29;;;;;;;3.47;1.60;;;8.50;99.90;;;;;;4997704;28;20448;-74
2022/11/25 09:17:59;;;;;;;3.58;1.10;;;8.60;99.90;;;;;;4983699;28;20038;-74
2022/11/25 09:20:26;;;;;;;5.57;1.33;;;8.60;99.90;;;;;;4994900;28;20403;-74
2022/11/25 09:22:51;;;;;;;4.45;1.48;;;8.60;99.90;;;;;;5000975;28;20053;-74
2022/11/25 09:25:17;;;;;;;2.83;1.42;;;8.60;99.90;;;;;;4996513;28;20057;-74
2022/11/25 09:27:43;;;;;;;2.88;1.30;;;8.60;99.90;;;;;;4996499;28;20060;-74
2022/11/25 09:30:09;;;;;;;4.10;1.55;;;8.60;99.90;;;;;;4995544;28;20073;-74
2022/11/25 09:32:35;;;;;;;1.95;1.17;;;8.70;99.90;;;;;;4976581;28;20037;-74
2022/11/25 09:35:00;;;;;;;6.32;1.52;;;8.70;99.90;;;;;;4995546;28;20045;-74
2022/11/25 09:37:26;;;;;;;4.75;1.38;;;8.70;99.90;;;;;;4998140;28;20046;-74
2022/11/25 09:39:54;;;;;;;2.47;1.23;;;8.70;99.90;;;;;;4996997;28;20052;-74
2022/11/25 09:49:05;;;;;;;1.63;1.33;;;8.80;99.90;;;;;;4999309;28;20648;-75
2022/11/25 09:51:56;;;;;;;4.38;1.58;;;8.80;99.90;;;;;;5014179;28;20042;-75
2022/11/25 09:54:37;;;;;;;3.13;1.10;;;8.90;99.90;;;;;;5000069;28;20095;-75
2022/11/25 09:57:19;;;;;;;4.25;1.27;;;8.90;99.90;;;;;;5008114;28;20088;-75
2022/11/25 10:00:00;;;;;;;2.72;1.40;;;9.00;99.90;;;;;;4981080;28;20037;-75
2022/11/25 10:02:51;;;;;;;2.50;1.23;;;9.00;99.90;;;;;;5000963;28;20030;-75
2022/11/25 10:05:22;;;;;;;2.08;1.17;;;9.00;99.90;;;;;;4995816;28;20053;-75
2022/11/25 10:07:52;;;;;;;2.47;1.27;;;9.00;99.90;;;;;;5001809;28;20037;-76
2022/11/25 10:10:24;;;;;;;3.17;1.27;;;9.00;99.90;;;;;;5016055;28;20115;-75
2022/11/25 10:12:52;;;;;;;2.60;1.08;;;9.10;99.90;;;;;;5000071;28;20099;-76
2022/11/25 10:15:33;;;;;;;7.05;1.33;;;9.10;99.90;;;;;;4999432;28;20658;-76
2022/11/25 10:18:29;;;;;;;6.20;1.30;;;9.10;99.90;;;;;;5004879;28;20042;-80
2022/11/25 10:20:54;;;;;;;2.97;0.90;;;9.10;99.90;;;;;;4988589;28;20415;-77
2022/11/25 10:23:26;;;;;;;2.53;0.88;;;9.10;99.90;;;;;;4998674;28;20049;-78
2022/11/25 10:26:01;;;;;;;2.10;1.52;;;9.10;99.90;;;;;;4999233;28;20045;-76
2022/11/25 10:28:32;;;;;;;2.28;1.10;;;9.20;99.90;;;;;;4993617;28;20423;-75
2022/11/25 10:31:16;;;;;;;3.90;1.42;;;9.30;99.90;;;;;;4994258;28;20404;-76
2022/11/25 10:33:49;;;;;;;8.32;1.05;;;9.20;99.90;;;;;;4982835;28;20105;-74
2022/11/25 10:36:22;;;;;;;1.77;1.10;;;9.30;99.90;;;;;;4993192;28;20073;-75
2022/11/25 10:39:13;;;;;;;6.95;1.33;;;9.30;99.90;;;;;;5015208;28;20038;-75
2022/11/25 10:41:54;;;;;;;3.50;0.98;;;9.30;99.90;;;;;;5012806;28;20129;-75
2022/11/25 10:44:26;;;;;;;5.20;1.40;;;9.30;99.90;;;;;;4995990;28;20030;-75
2022/11/25 10:47:00;;;;;;;4.65;1.27;;;9.30;99.90;;;;;;4991803;28;20061;-75
2022/11/25 10:49:34;;;;;;;3.30;0.85;;;9.30;99.90;;;;;;4982342;28;20046;-75
2022/11/25 10:52:01;;;;;;;1.63;0.85;;;9.40;99.90;;;;;;5001615;28;20046;-75
2022/11/25 10:54:27;;;;;;;1.38;0.98;;;9.40;99.90;;;;;;4998534;28;20527;-74
2022/11/25 10:56:58;;;;;;;2.17;1.17;;;9.40;99.90;;;;;;5015351;28;20066;-75
2022/11/25 10:59:31;;;;;;;3.08;0.95;;;9.40;99.90;;;;;;5015153;28;20431;-75
2022/11/25 11:02:18;;;;;;;4.43;0.90;;;9.40;99.90;;;;;;4998670;28;20041;-75
2022/11/25 11:04:57;;;;;;;2.72;0.85;;;9.50;99.90;;;;;;5000001;28;20038;-76
2022/11/25 11:07:24;;;;;;;2.13;1.15;;;9.50;99.90;;;;;;4994087;28;20034;-76
2022/11/25 11:09:51;;;;;;;2.47;1.10;;;9.50;99.90;;;;;;4998266;28;20717;-75
2022/11/25 11:12:24;;;;;;;6.85;1.15;;;9.60;99.90;;;;;;4971351;28;20117;-76
2022/11/25 11:14:51;;;;;;;0.82;0.35;;;9.60;99.90;;;;;;4996872;28;20034;-76
2022/11/25 11:17:30;;;;;;;1.60;1.08;;;9.60;99.90;;;;;;4998058;28;20041;-76
2022/11/25 11:20:02;;;;;;;4.20;1.10;;;9.60;99.90;;;;;;4988772;28;20054;-75
2022/11/25 11:22:28;;;;;;;3.85;0.75;;;9.70;99.90;;;;;;4997418;28;20092;-75
2022/11/25 11:25:18;;;;;;;4.00;0.93;;;9.70;99.90;;;;;;4997939;28;20112;-76
2022/11/25 11:27:44;;;;;;;3.97;1.08;;;9.70;99.90;;;;;;4998269;28;20038;-75
2022/11/25 11:30:20;;;;;;;1.27;0.73;;;9.80;99.90;;;;;;4994265;28;20125;-76
2022/11/25 11:33:18;;;;;;;4.07;1.00;;;9.80;99.90;;;;;;4992658;28;20034;-75
2022/11/25 11:35:54;;;;;;;1.52;0.63;;;9.80;99.90;;;;;;4991586;28;20054;-76
2022/11/25 11:38:46;;;;;;;2.22;0.40;;;9.90;99.90;;;;;;4997072;28;20058;-75
2022/11/25 11:41:30;;;;;;;4.50;0.50;;;9.90;99.90;;;;;;4993401;28;20045;-75
2022/11/25 11:44:07;;;;;;;2.25;0.65;;;9.90;99.90;;;;;;4994126;28;20049;-75
2022/11/25 11:47:02;;;;;;;2.00;0.77;;;9.90;99.90;;;;;;4996041;28;20101;-75
2022/11/25 11:49:51;;;;;;;5.68;1.08;;;9.90;99.90;;;;;;4996094;28;20081;-75
2022/11/25 11:52:40;;;;;;;1.45;0.63;;;9.90;99.90;;;;;;4998271;28;20699;-75
2022/11/25 11:55:34;;;;;;;1.42;0.68;;;9.80;99.90;;;;;;4993169;28;20122;-74
2022/11/25 11:58:20;;;;;;;1.80;0.65;;;9.80;99.90;;;;;;4997596;28;20065;-75
2022/11/25 12:01:21;;;;;;;3.05;0.40;;;9.80;99.90;;;;;;5000624;28;20132;-74
2022/11/25 12:04:27;;;;;;;1.27;0.55;;;9.90;99.90;;;;;;5000218;28;20491;-74
2022/11/25 12:07:05;;;;;;;6.22;1.08;;;9.90;99.90;;;;;;4958384;28;20109;-74
2022/11/25 12:09:42;;;;;;;1.10;0.57;;;9.90;99.90;;;;;;4988522;28;20368;-74
2022/11/25 12:12:14;;;;;;;1.90;0.60;;;10.00;99.90;;;;;;4999876;28;20046;-74
2022/11/25 12:14:54;;;;;;;2.38;0.40;;;9.90;99.90;;;;;;4999437;28;20125;-74
2022/11/25 12:17:32;;;;;;;3.10;0.85;;;10.00;99.90;;;;;;4996906;28;20103;-74
2022/11/25 12:20:30;;;;;;;4.20;0.77;;;10.00;99.90;;;;;;4997919;28;20046;-74
2022/11/25 12:23:04;;;;;;;2.20;0.90;;;10.00;99.90;;;;;;4992224;28;20045;-74
2022/11/25 12:25:35;;;;;;;0.68;0.35;;;10.10;99.90;;;;;;4996876;28;20057;-74
2022/11/25 12:28:16;;;;;;;2.85;0.80;;;10.10;99.90;;;;;;4999339;28;20064;-74
2022/11/25 12:31:18;;;;;;;4.65;0.80;;;10.10;99.90;;;;;;4996629;28;20045;-74
2022/11/25 12:34:01;;;;;;;2.72;0.70;;;10.20;99.90;;;;;;4998780;28;20117;-74
2022/11/25 12:36:34;;;;;;;4.20;0.93;;;10.20;99.90;;;;;;4994895;28;20026;-74
2022/11/25 12:39:10;;;;;;;2.40;0.70;;;10.30;99.90;;;;;;4982624;28;20045;-74
2022/11/25 12:42:03;;;;;;;2.13;0.52;;;10.20;99.90;;;;;;5000226;28;20058;-74
2022/11/25 12:45:08;;;;;;;1.50;0.57;;;10.30;99.90;;;;;;4996955;28;20531;-74
2022/11/25 12:47:34;;;;;;;2.08;0.52;;;10.20;99.90;;;;;;4923614;29;20564;-74
2022/11/25 12:49:59;;;;;;;4.35;1.08;;;10.20;99.90;;;;;;4980539;28;20050;-75
2022/11/25 12:52:28;;;;;;;5.35;0.52;;;10.10;99.90;;;;;;4998660;28;20088;-73
2022/11/25 12:55:18;;;;;;;2.38;0.32;;;10.10;99.90;;;;;;4993742;28;20052;-74
2022/11/25 12:57:56;;;;;;;1.27;0.70;;;10.10;99.90;;;;;;5006428;28;20058;-74
2022/11/25 13:00:25;;;;;;;1.45;0.55;;;10.10;99.90;;;;;;5008803;28;20114;-73
2022/11/25 13:03:12;;;;;;;1.80;0.90;;;10.10;99.90;;;;;;5011308;28;20041;-74
2022/11/25 13:05:58;;;;;;;6.05;0.60;;;10.20;99.90;;;;;;5009114;28;20125;-74
2022/11/25 13:08:42;;;;;;;3.20;0.65;;;10.20;99.90;;;;;;4994537;28;20045;-73
2022/11/25 13:11:48;;;;;;;2.25;0.52;;;10.20;99.90;;;;;;5010898;28;20077;-74
2022/11/25 13:14:38;;;;;;;2.60;0.57;;;10.20;99.90;;;;;;5010054;28;20049;-73
2022/11/25 13:17:08;;;;;;;3.53;0.90;;;10.20;99.90;;;;;;5011031;28;20496;-74
2022/11/25 13:19:35;;;;;;;1.80;0.63;;;10.20;99.90;;;;;;5008650;28;20046;-74
2022/11/25 13:22:25;;;;;;;1.55;0.50;;;10.20;99.90;;;;;;5011236;28;20050;-73
2022/11/25 13:24:51;;;;;;;3.88;0.55;;;10.20;99.90;;;;;;5010222;28;20076;-74